createdAt,value
2018-04-19T00:06:53.774Z,18.94
2018-04-19T00:09:22.481Z,18.92
2018-04-19T00:11:51.136Z,18.87
2018-04-19T00:14:19.330Z,18.83
2018-04-19T00:16:47.583Z,18.80
2018-04-19T00:19:16.231Z,18.76
2018-04-19T00:21:44.488Z,18.74
2018-04-19T00:24:12.717Z,18.71
2018-04-19T00:26:41.334Z,18.70
2018-04-19T00:29:09.549Z,18.73
2018-04-19T00:31:37.778Z,18.73
2018-04-19T00:34:06.372Z,18.73
2018-04-19T00:36:34.568Z,18.72
2018-04-19T00:39:02.880Z,18.73
2018-04-19T00:41:31.467Z,18.73
2018-04-19T00:43:59.691Z,18.70
2018-04-19T00:46:28.164Z,18.68
2018-04-19T00:48:56.615Z,18.66
2018-04-19T00:51:24.845Z,18.62
2018-04-19T00:53:53.235Z,18.63
2018-04-19T00:56:21.754Z,18.65
2018-04-19T00:58:49.971Z,18.65
2018-04-19T01:01:18.389Z,18.66
2018-04-19T01:03:47.019Z,18.65
2018-04-19T01:06:15.301Z,18.61
2018-04-19T01:08:43.531Z,18.59
2018-04-19T01:11:11.966Z,18.59
2018-04-19T01:13:40.224Z,18.57
2018-04-19T01:16:08.518Z,18.60
2018-04-19T01:18:37.180Z,18.58
2018-04-19T01:21:05.410Z,18.59
2018-04-19T01:23:33.669Z,18.59
2018-04-19T01:26:02.287Z,18.57
2018-04-19T01:28:30.570Z,18.57
2018-04-19T01:30:58.842Z,18.60
2018-04-19T01:33:27.576Z,18.57
2018-04-19T01:36:07.580Z,18.58
2018-04-19T01:38:35.794Z,18.53
2018-04-19T01:41:04.094Z,18.53
2018-04-19T01:43:32.878Z,18.52
2018-04-19T01:46:01.082Z,18.43
2018-04-19T01:48:29.301Z,18.34
2018-04-19T01:50:57.841Z,18.22
2018-04-19T01:53:26.107Z,18.08
2018-04-19T01:55:54.512Z,18.00
2018-04-19T01:58:23.331Z,17.94
2018-04-19T02:00:51.543Z,17.91
2018-04-19T02:03:19.750Z,17.89
2018-04-19T02:05:48.315Z,17.88
2018-04-19T02:08:16.589Z,17.82
2018-04-19T02:10:44.794Z,17.78
2018-04-19T02:13:13.453Z,17.77
2018-04-19T02:15:41.689Z,17.74
2018-04-19T02:18:09.941Z,17.72
2018-04-19T02:20:38.596Z,17.68
2018-04-19T02:23:06.827Z,17.64
2018-04-19T02:25:35.028Z,17.59
2018-04-19T02:28:03.773Z,17.54
2018-04-19T02:30:32.027Z,17.54
2018-04-19T02:33:00.220Z,17.55
2018-04-19T02:35:28.963Z,17.58
2018-04-19T02:37:57.226Z,17.56
2018-04-19T02:40:25.454Z,17.57
2018-04-19T02:42:54.061Z,17.57
2018-04-19T02:45:22.307Z,17.56
2018-04-19T02:47:50.518Z,17.57
2018-04-19T02:50:19.153Z,17.57
2018-04-19T02:52:47.364Z,17.54
2018-04-19T02:55:15.559Z,17.51
2018-04-19T02:57:44.010Z,17.46
2018-04-19T03:00:12.215Z,17.45
2018-04-19T03:02:40.606Z,17.41
2018-04-19T03:05:09.205Z,17.39
2018-04-19T03:07:37.431Z,17.35
2018-04-19T03:10:05.730Z,17.33
2018-04-19T03:12:34.409Z,17.30
2018-04-19T03:15:02.633Z,17.28
2018-04-19T03:17:30.940Z,17.27
2018-04-19T03:19:59.480Z,17.26
2018-04-19T03:22:27.717Z,17.24
2018-04-19T03:24:56.028Z,17.18
2018-04-19T03:27:24.727Z,17.16
2018-04-19T03:29:52.931Z,17.12
2018-04-19T03:32:21.143Z,17.10
2018-04-19T03:34:49.767Z,17.08
2018-04-19T03:37:18.157Z,17.02
2018-04-19T03:39:46.337Z,17.02
2018-04-19T03:42:14.903Z,16.99
2018-04-19T03:44:43.118Z,16.96
2018-04-19T03:47:11.487Z,16.93
2018-04-19T03:49:40.034Z,16.90
2018-04-19T03:52:08.319Z,16.88
2018-04-19T03:54:36.661Z,16.83
2018-04-19T03:57:07.965Z,16.75
2018-04-19T03:59:36.760Z,16.72
2018-04-19T04:02:05.342Z,16.66
2018-04-19T04:04:33.601Z,16.65
2018-04-19T04:07:01.906Z,16.61
2018-04-19T04:09:30.444Z,16.55
2018-04-19T04:11:58.691Z,16.50
2018-04-19T04:14:27.070Z,16.45
2018-04-19T04:17:07.230Z,16.38
2018-04-19T04:19:47.305Z,16.35
2018-04-19T04:22:27.438Z,16.29
2018-04-19T04:24:56.154Z,16.29
2018-04-19T04:27:25.057Z,16.25
2018-04-19T04:29:53.377Z,16.24
2018-04-19T04:32:23.481Z,16.21
2018-04-19T04:34:52.231Z,16.15
2018-04-19T04:37:20.808Z,16.12
2018-04-19T04:39:49.299Z,16.13
2018-04-19T04:42:17.905Z,16.13
2018-04-19T04:44:46.411Z,16.11
2018-04-19T04:47:14.642Z,16.10
2018-04-19T04:49:43.156Z,16.09
2018-04-19T04:52:11.948Z,16.13
2018-04-19T04:54:40.180Z,16.13
2018-04-19T04:57:08.391Z,16.11
2018-04-19T04:59:37.126Z,16.11
2018-04-19T05:02:05.438Z,16.08
2018-04-19T05:04:33.641Z,16.10
2018-04-19T05:07:02.429Z,16.10
2018-04-19T05:09:30.647Z,16.07
2018-04-19T05:11:58.876Z,16.06
2018-04-19T05:14:27.714Z,16.04
2018-04-19T05:16:55.911Z,16.08
2018-04-19T05:19:24.136Z,16.10
2018-04-19T05:21:52.732Z,16.11
2018-04-19T05:24:20.997Z,16.15
2018-04-19T05:26:49.218Z,16.16
2018-04-19T05:29:17.834Z,16.21
2018-04-19T05:31:46.976Z,16.22
2018-04-19T05:34:15.187Z,16.27
2018-04-19T05:36:43.453Z,16.30
2018-04-19T05:39:12.128Z,16.34
2018-04-19T05:41:40.362Z,16.38
2018-04-19T05:44:08.579Z,16.44
2018-04-19T05:46:37.303Z,16.52
2018-04-19T05:49:05.534Z,16.55
2018-04-19T05:51:33.748Z,16.66
2018-04-19T05:54:02.315Z,16.70
2018-04-19T05:56:30.502Z,16.75
2018-04-19T05:58:58.729Z,16.83
2018-04-19T06:01:26.956Z,16.90
2018-04-19T06:03:55.148Z,16.95
2018-04-19T06:06:23.606Z,17.00
2018-04-19T06:08:51.838Z,17.07
2018-04-19T06:11:20.045Z,17.16
2018-04-19T06:13:48.870Z,17.22
2018-04-19T06:16:17.098Z,17.31
2018-04-19T06:18:45.315Z,17.42
2018-04-19T06:21:14.255Z,17.47
2018-04-19T06:23:42.968Z,17.55
2018-04-19T06:26:11.182Z,17.64
2018-04-19T06:28:39.422Z,17.75
2018-04-19T06:31:08.166Z,17.83
2018-04-19T06:33:36.352Z,17.90
2018-04-19T06:36:04.550Z,17.97
2018-04-19T06:38:33.175Z,18.09
2018-04-19T06:41:01.379Z,18.14
2018-04-19T06:43:29.628Z,18.20
2018-04-19T06:45:58.202Z,18.28
2018-04-19T06:48:26.407Z,18.40
2018-04-19T06:50:54.627Z,18.48
2018-04-19T06:53:23.340Z,18.58
2018-04-19T06:55:51.568Z,18.69
2018-04-19T06:58:19.799Z,18.76
2018-04-19T07:00:48.474Z,18.81
2018-04-19T07:03:16.671Z,18.89
2018-04-19T07:05:44.897Z,19.02
2018-04-19T07:08:13.651Z,19.15
2018-04-19T07:10:41.897Z,19.25
2018-04-19T07:13:10.085Z,19.43
2018-04-19T07:15:38.731Z,19.59
2018-04-19T07:18:06.926Z,19.73
2018-04-19T07:20:35.116Z,19.86
2018-04-19T07:23:03.318Z,19.98
2018-04-19T07:25:31.534Z,20.17
2018-04-19T07:28:00.119Z,20.30
2018-04-19T07:30:28.312Z,20.46
2018-04-19T07:32:56.503Z,20.58
2018-04-19T07:35:24.826Z,20.69
2018-04-19T07:37:53.047Z,20.84
2018-04-19T07:40:21.494Z,20.97
2018-04-19T07:42:50.072Z,21.05
2018-04-19T07:45:18.305Z,21.10
2018-04-19T07:47:46.612Z,21.20
2018-04-19T07:50:15.189Z,21.29
2018-04-19T07:52:43.380Z,21.42
2018-04-19T07:55:11.765Z,21.55
2018-04-19T07:57:40.014Z,21.74
2018-04-19T08:00:08.233Z,21.86
2018-04-19T08:02:36.446Z,21.98
2018-04-19T08:05:05.126Z,22.07
2018-04-19T08:07:33.346Z,22.17
2018-04-19T08:10:01.531Z,22.32
2018-04-19T08:12:30.249Z,22.43
2018-04-19T08:14:58.457Z,22.57
2018-04-19T08:17:26.679Z,22.69
2018-04-19T08:19:55.384Z,22.85
2018-04-19T08:22:23.601Z,22.98
2018-04-19T08:24:51.812Z,23.10
2018-04-19T08:27:20.412Z,23.22
2018-04-19T08:29:48.616Z,23.37
2018-04-19T08:32:16.826Z,23.45
2018-04-19T08:34:45.525Z,23.55
2018-04-19T08:37:13.737Z,23.66
2018-04-19T08:39:41.953Z,23.75
2018-04-19T08:42:10.194Z,23.77
2018-04-19T08:44:38.387Z,23.82
2018-04-19T08:47:06.809Z,23.87
2018-04-19T08:49:35.030Z,23.88
2018-04-19T08:52:03.236Z,23.96
2018-04-19T08:54:31.475Z,24.02
2018-04-19T08:56:59.741Z,24.09
2018-04-19T08:59:28.043Z,24.17
2018-04-19T09:01:56.676Z,24.25
2018-04-19T09:04:24.856Z,24.31
2018-04-19T09:06:53.176Z,24.33
2018-04-19T09:09:21.758Z,24.41
2018-04-19T09:11:49.981Z,24.46
2018-04-19T09:14:18.277Z,24.57
2018-04-19T09:16:46.925Z,24.68
2018-04-19T09:19:15.166Z,24.72
2018-04-19T09:21:43.433Z,24.85
2018-04-19T09:24:12.060Z,24.99
2018-04-19T09:26:40.266Z,25.08
2018-04-19T09:29:08.599Z,25.07
2018-04-19T09:31:37.108Z,25.14
2018-04-19T09:34:05.393Z,25.21
2018-04-19T09:36:33.698Z,25.30
2018-04-19T09:39:02.212Z,25.39
2018-04-19T09:41:30.426Z,25.50
2018-04-19T09:43:58.742Z,25.62
2018-04-19T09:46:27.287Z,25.68
2018-04-19T09:48:55.509Z,25.74
2018-04-19T09:51:23.760Z,25.91
2018-04-19T09:53:52.445Z,26.04
2018-04-19T09:56:20.630Z,26.01
2018-04-19T09:59:00.885Z,26.18
2018-04-19T10:01:29.409Z,26.25
2018-04-19T10:03:58.252Z,26.28
2018-04-19T10:06:26.585Z,26.29
2018-04-19T10:08:54.891Z,26.30
2018-04-19T10:11:23.599Z,26.32
2018-04-19T10:13:51.906Z,26.34
2018-04-19T10:16:20.172Z,26.44
2018-04-19T10:18:48.728Z,26.43
2018-04-19T10:21:16.992Z,26.56
2018-04-19T10:23:45.239Z,26.53
2018-04-19T10:26:13.927Z,26.53
2018-04-19T10:28:42.130Z,26.53
2018-04-19T10:31:10.955Z,26.57
2018-04-19T10:33:39.285Z,26.70
2018-04-19T10:36:07.949Z,26.70
2018-04-19T10:38:36.122Z,26.78
2018-04-19T10:41:04.365Z,26.77
2018-04-19T10:43:32.614Z,26.92
2018-04-19T10:46:00.818Z,26.99
2018-04-19T10:48:29.299Z,26.98
2018-04-19T10:50:57.515Z,27.01
2018-04-19T10:53:25.697Z,27.05
2018-04-19T10:55:54.045Z,27.04
2018-04-19T10:58:22.251Z,27.06
2018-04-19T11:00:50.565Z,27.15
2018-04-19T11:03:19.148Z,27.19
2018-04-19T11:05:47.346Z,27.25
2018-04-19T11:08:16.701Z,27.44
2018-04-19T11:10:45.004Z,27.61
2018-04-19T11:13:13.768Z,27.71
2018-04-19T11:15:42.073Z,27.71
2018-04-19T11:18:10.312Z,27.80
2018-04-19T11:20:38.877Z,27.73
2018-04-19T11:23:07.072Z,27.71
2018-04-19T11:25:35.293Z,27.82
2018-04-19T11:28:03.975Z,27.89
2018-04-19T11:30:32.241Z,27.97
2018-04-19T11:33:00.453Z,28.09
2018-04-19T11:35:29.123Z,28.08
2018-04-19T11:37:57.326Z,28.08
2018-04-19T11:40:25.663Z,28.12
2018-04-19T11:42:54.433Z,28.22
2018-04-19T11:45:22.642Z,28.21
2018-04-19T11:47:50.860Z,28.20
2018-04-19T11:50:19.423Z,28.19
2018-04-19T11:52:47.624Z,28.22
2018-04-19T11:55:15.861Z,28.27
2018-04-19T11:57:44.587Z,28.39
2018-04-19T12:00:12.815Z,28.55
2018-04-19T12:02:41.013Z,28.96
2018-04-19T12:05:09.655Z,29.65
2018-04-19T12:07:37.881Z,30.35
2018-04-19T12:10:06.120Z,31.08
2018-04-19T12:12:34.907Z,31.67
2018-04-19T12:15:03.116Z,31.80
2018-04-19T12:17:31.346Z,32.00
2018-04-19T12:19:59.945Z,32.24
2018-04-19T12:22:28.148Z,32.37
2018-04-19T12:24:56.350Z,32.60
2018-04-19T12:27:25.063Z,32.84
2018-04-19T12:29:53.284Z,33.39
2018-04-19T12:32:21.510Z,33.57
2018-04-19T12:34:50.148Z,33.56
2018-04-19T12:37:18.370Z,34.06
2018-04-19T12:39:46.613Z,34.27
2018-04-19T12:42:15.383Z,34.32
2018-04-19T12:44:43.596Z,34.41
2018-04-19T12:47:11.802Z,34.48
2018-04-19T12:49:40.417Z,34.25
2018-04-19T12:52:08.643Z,34.41
2018-04-19T12:54:36.859Z,34.71
2018-04-19T12:57:05.528Z,34.91
2018-04-19T12:59:33.742Z,34.62
2018-04-19T13:02:01.993Z,34.75
2018-04-19T13:04:30.642Z,34.95
2018-04-19T13:06:58.846Z,34.77
2018-04-19T13:09:27.308Z,34.23
2018-04-19T13:11:55.785Z,34.00
2018-04-19T13:14:24.007Z,34.32
2018-04-19T13:16:52.214Z,34.48
2018-04-19T13:19:20.988Z,34.70
2018-04-19T13:21:49.205Z,34.62
2018-04-19T13:24:17.451Z,34.73
2018-04-19T13:26:45.995Z,35.12
2018-04-19T13:29:14.223Z,35.13
2018-04-19T13:31:42.427Z,34.97
2018-04-19T13:34:11.181Z,35.12
2018-04-19T13:36:39.361Z,35.17
2018-04-19T13:39:07.571Z,35.10
2018-04-19T13:41:36.689Z,35.30
2018-04-19T13:44:04.909Z,35.26
2018-04-19T13:46:33.329Z,35.72
2018-04-19T13:51:44.347Z,36.13
2018-04-19T13:54:12.930Z,36.21
2018-04-19T13:56:41.151Z,36.57
2018-04-19T13:59:09.413Z,36.59
2018-04-19T14:01:38.065Z,36.04
2018-04-19T14:04:06.312Z,35.74
2018-04-19T14:06:34.525Z,35.85
2018-04-19T14:09:03.628Z,35.92
2018-04-19T14:11:32.133Z,35.70
2018-04-19T14:14:00.351Z,35.37
2018-04-19T14:16:28.579Z,35.73
2018-04-19T14:18:57.258Z,36.06
2018-04-19T14:21:25.448Z,36.19
2018-04-19T14:23:53.640Z,35.91
2018-04-19T14:26:22.290Z,35.82
2018-04-19T14:28:50.469Z,36.07
2018-04-19T14:31:18.945Z,36.05
2018-04-19T14:33:47.532Z,36.26
2018-04-19T14:36:15.751Z,36.42
2018-04-19T14:38:43.994Z,36.60
2018-04-19T14:41:12.680Z,36.40
2018-04-19T14:43:40.942Z,36.38
2018-04-19T14:46:09.128Z,36.00
2018-04-19T14:48:37.745Z,36.02
2018-04-19T14:51:05.978Z,36.06
2018-04-19T14:53:34.896Z,35.66
2018-04-19T14:56:03.486Z,35.57
2018-04-19T14:58:31.693Z,35.43
2018-04-19T15:01:00.087Z,34.97
2018-04-19T15:03:28.735Z,34.86
2018-04-19T15:05:57.159Z,34.76
2018-04-19T15:08:25.398Z,34.47
2018-04-19T15:10:53.812Z,34.31
2018-04-19T15:13:22.043Z,34.27
2018-04-19T15:15:50.228Z,34.16
2018-04-19T15:18:18.860Z,33.69
2018-04-19T15:20:47.095Z,33.47
2018-04-19T15:23:15.451Z,33.04
2018-04-19T15:25:44.011Z,32.73
2018-04-19T15:28:12.212Z,32.49
2018-04-19T15:30:40.863Z,32.31
2018-04-19T15:33:09.053Z,30.67
2018-04-19T15:35:37.275Z,28.73
2018-04-19T15:38:05.488Z,28.43
2018-04-19T15:40:34.360Z,28.23
2018-04-19T15:43:02.573Z,27.78
2018-04-19T15:45:31.586Z,27.47
2018-04-19T15:48:00.528Z,26.86
2018-04-19T15:50:28.804Z,26.51
2018-04-19T15:52:57.017Z,26.26
2018-04-19T15:55:25.877Z,25.92
2018-04-19T15:57:54.127Z,25.73
2018-04-19T16:00:22.387Z,26.64
2018-04-19T16:02:51.174Z,27.36
2018-04-19T16:05:19.869Z,27.92
2018-04-19T16:07:48.044Z,28.38
2018-04-19T16:10:16.329Z,28.66
2018-04-19T16:12:45.017Z,28.90
2018-04-19T16:15:13.227Z,29.12
2018-04-19T16:17:41.465Z,29.19
2018-04-19T16:20:10.066Z,29.26
2018-04-19T16:22:38.253Z,29.30
2018-04-19T16:25:06.453Z,29.32
2018-04-19T16:27:35.213Z,29.32
2018-04-19T16:30:03.434Z,29.31
2018-04-19T16:32:31.690Z,29.33
2018-04-19T16:35:00.423Z,29.35
2018-04-19T16:37:28.663Z,29.31
2018-04-19T16:39:57.490Z,29.28
2018-04-19T16:42:26.152Z,29.28
2018-04-19T16:44:54.407Z,29.25
2018-04-19T16:47:22.602Z,29.25
2018-04-19T16:49:51.174Z,29.21
2018-04-19T16:52:19.409Z,29.13
2018-04-19T16:54:47.807Z,29.11
2018-04-19T16:57:16.677Z,29.14
2018-04-19T16:59:44.952Z,29.16
2018-04-19T17:02:13.187Z,29.07
2018-04-19T17:04:41.882Z,28.98
2018-04-19T17:07:10.087Z,28.92
2018-04-19T17:09:38.317Z,28.86
2018-04-19T17:12:06.880Z,28.85
2018-04-19T17:14:35.171Z,28.84
2018-04-19T17:17:03.383Z,28.80
2018-04-19T17:19:32.072Z,28.77
2018-04-19T17:22:00.319Z,28.72
2018-04-19T17:24:28.493Z,28.68
2018-04-19T17:26:57.126Z,28.17
2018-04-19T17:29:25.354Z,27.58
2018-04-19T17:31:53.749Z,27.21
2018-04-19T17:34:22.237Z,26.62
2018-04-19T17:36:50.453Z,26.43
2018-04-19T17:39:18.887Z,26.79
2018-04-19T17:41:47.714Z,27.01
2018-04-19T17:44:15.960Z,27.13
2018-04-19T17:46:44.147Z,27.18
2018-04-19T17:49:12.742Z,27.22
2018-04-19T17:51:41.025Z,27.27
2018-04-19T17:54:09.243Z,27.26
2018-04-19T17:56:37.806Z,27.26
2018-04-19T17:59:06.044Z,27.26
2018-04-19T18:01:34.277Z,27.29
2018-04-19T18:04:03.218Z,27.27
2018-04-19T18:06:32.057Z,27.25
2018-04-19T18:09:00.249Z,27.18
2018-04-19T18:11:28.508Z,27.15
2018-04-19T18:13:57.191Z,27.07
2018-04-19T18:16:25.395Z,27.00
2018-04-19T18:18:53.600Z,26.94
2018-04-19T18:21:22.317Z,26.88
2018-04-19T18:23:50.565Z,26.82
2018-04-19T18:26:18.777Z,26.80
2018-04-19T18:28:47.432Z,26.71
2018-04-19T18:31:15.639Z,26.69
2018-04-19T18:33:43.849Z,26.65
2018-04-19T18:36:12.491Z,26.57
2018-04-19T18:38:41.453Z,26.51
2018-04-19T18:41:09.659Z,26.48
2018-04-19T18:43:37.911Z,26.25
2018-04-19T18:46:07.112Z,25.68
2018-04-19T18:48:35.459Z,25.14
2018-04-19T18:51:04.081Z,24.69
2018-04-19T18:53:32.297Z,24.45
2018-04-19T18:56:00.508Z,24.24
2018-04-19T18:58:29.070Z,24.07
2018-04-19T19:00:57.285Z,23.90
2018-04-19T19:03:25.485Z,23.76
2018-04-19T19:05:54.223Z,23.69
2018-04-19T19:08:22.483Z,23.61
2018-04-19T19:10:50.671Z,23.52
2018-04-19T19:13:19.419Z,23.45
2018-04-19T19:19:12.584Z,23.37
2018-04-19T19:21:40.777Z,23.33
2018-04-19T19:24:09.629Z,23.28
2018-04-19T19:26:37.842Z,23.26
2018-04-19T19:29:06.023Z,23.24
2018-04-19T19:31:34.744Z,23.20
2018-04-19T19:34:02.975Z,23.18
2018-04-19T19:36:31.247Z,23.19
2018-04-19T19:38:59.926Z,23.30
2018-04-19T19:41:28.195Z,23.38
2018-04-19T19:43:56.425Z,23.45
2018-04-19T19:46:24.981Z,23.50
2018-04-19T19:48:53.224Z,23.54
2018-04-19T19:51:21.469Z,23.55
2018-04-19T19:53:50.089Z,23.55
2018-04-19T19:56:18.332Z,23.57
2018-04-19T19:58:46.606Z,23.61
2018-04-19T20:01:15.174Z,23.61
2018-04-19T20:03:43.422Z,23.65
2018-04-19T20:06:11.658Z,23.73
2018-04-19T20:08:40.219Z,23.75
2018-04-19T20:11:08.573Z,23.76
2018-04-19T20:13:36.770Z,23.73
2018-04-19T20:16:05.347Z,23.67
2018-04-19T20:18:33.601Z,23.60
2018-04-19T20:21:01.829Z,23.50
2018-04-19T20:23:30.526Z,23.48
2018-04-19T20:25:58.752Z,23.43
2018-04-19T20:28:26.937Z,23.38
2018-04-19T20:30:55.575Z,23.33
2018-04-19T20:33:23.842Z,23.33
2018-04-19T20:35:52.904Z,23.36
2018-04-19T20:38:21.147Z,23.35
2018-04-19T20:40:49.703Z,23.36
2018-04-19T20:43:17.906Z,23.28
2018-04-19T20:45:46.165Z,23.23
2018-04-19T20:48:14.973Z,23.14
2018-04-19T20:50:43.230Z,23.10
2018-04-19T20:53:12.019Z,23.10
2018-04-19T20:55:40.501Z,23.08
2018-04-19T20:58:08.758Z,23.03
2018-04-19T21:00:37.081Z,22.99
2018-04-19T21:03:05.782Z,22.94
2018-04-19T21:05:33.996Z,22.92
2018-04-19T21:08:02.199Z,22.81
2018-04-19T21:10:30.715Z,22.76
2018-04-19T21:13:00.127Z,22.70
2018-04-19T21:15:31.533Z,22.65
2018-04-19T21:18:00.293Z,22.61
2018-04-19T21:20:28.490Z,22.58
2018-04-19T21:22:56.729Z,22.54
2018-04-19T21:25:25.326Z,22.46
2018-04-19T21:27:53.513Z,22.45
2018-04-19T21:30:21.775Z,22.43
2018-04-19T21:32:50.544Z,22.41
2018-04-19T21:35:18.863Z,22.35
2018-04-19T21:37:47.698Z,22.34
2018-04-19T21:40:16.143Z,22.29
2018-04-19T21:42:44.347Z,22.24
2018-04-19T21:45:12.714Z,22.21
2018-04-19T21:47:41.307Z,22.16
2018-04-19T21:50:09.546Z,22.12
2018-04-19T21:52:38.046Z,22.02
2018-04-19T21:55:06.899Z,21.98
2018-04-19T21:57:35.115Z,21.91
2018-04-19T22:00:03.335Z,21.85
2018-04-19T22:02:31.969Z,21.82
2018-04-19T22:05:00.186Z,21.77
2018-04-19T22:07:28.391Z,21.71
2018-04-19T22:09:57.098Z,21.63
2018-04-19T22:12:25.303Z,21.58
2018-04-19T22:14:53.522Z,21.56
2018-04-19T22:17:22.299Z,21.51
2018-04-19T22:19:51.232Z,21.49
2018-04-19T22:22:19.438Z,21.45
2018-04-19T22:24:49.023Z,21.42
2018-04-19T22:27:17.717Z,21.34
2018-04-19T22:29:46.997Z,21.33
2018-04-19T22:32:15.236Z,21.30
2018-04-19T22:34:43.597Z,21.27
2018-04-19T22:37:12.120Z,21.27
2018-04-19T22:39:40.391Z,21.21
2018-04-19T22:42:08.709Z,21.23
2018-04-19T22:44:37.296Z,21.22
2018-04-19T22:47:05.603Z,21.19
2018-04-19T22:49:33.778Z,21.17
2018-04-19T22:52:02.334Z,21.16
2018-04-19T22:54:30.564Z,21.14
2018-04-19T22:56:58.957Z,21.10
2018-04-19T22:59:27.506Z,21.09
2018-04-19T23:01:55.721Z,21.05
2018-04-19T23:04:24.130Z,21.04
2018-04-19T23:06:52.667Z,20.99
2018-04-19T23:09:20.922Z,20.94
2018-04-19T23:11:50.121Z,20.91
2018-04-19T23:14:18.360Z,20.85
2018-04-19T23:16:47.109Z,20.79
2018-04-19T23:19:15.351Z,20.73
2018-04-19T23:21:43.606Z,20.69
2018-04-19T23:24:12.261Z,20.66
2018-04-19T23:26:40.489Z,20.62
2018-04-19T23:29:09.310Z,20.55
2018-04-19T23:31:38.026Z,20.51
2018-04-19T23:34:06.221Z,20.52
2018-04-19T23:36:34.685Z,20.49
2018-04-19T23:39:03.296Z,20.47
2018-04-19T23:41:31.517Z,20.43
2018-04-19T23:43:59.713Z,20.39
2018-04-19T23:46:28.295Z,20.37
2018-04-19T23:48:56.514Z,20.36
2018-04-19T23:51:24.819Z,20.35
2018-04-19T23:53:53.419Z,20.30
2018-04-19T23:56:21.638Z,20.26
2018-04-19T23:58:50.110Z,20.22
